Time;durP1;ratioP1;P1;durP2;ratioP2;P2;SDS_P1;SDS_P2;PMS_P1;PMS_P2;Temp;Humidity;BMP_temperature;BMP_pressure;BME280_temperature;BME280_humidity;BME280_pressure;Samples;Min_cycle;Max_cycle;Signal;HPM_P1;HPM_P2
2022/11/14 00:00:24;;;;;;;10.73;7.78;;;;;;;9.71;62.96;101454.09;5135812;27;20034;-62
2022/11/14 00:02:50;;;;;;;11.82;7.75;;;;;;;9.60;62.91;101459.97;5135935;27;20030;-62
2022/11/14 00:05:15;;;;;;;10.20;7.75;;;;;;;9.57;63.29;101463.44;5135836;27;20028;-63
2022/11/14 00:07:40;;;;;;;10.13;7.88;;;;;;;9.59;63.08;101455.53;5136059;27;20047;-62
2022/11/14 00:10:06;;;;;;;11.60;7.50;;;;;;;9.54;63.21;101455.44;5135813;27;20023;-67
2022/11/14 00:12:32;;;;;;;11.38;8.63;;;;;;;9.45;63.15;101450.81;5135746;27;20058;-62
2022/11/14 00:14:58;;;;;;;14.82;7.95;;;;;;;9.52;63.22;101450.13;5135558;27;20027;-62
2022/11/14 00:17:23;;;;;;;14.40;8.30;;;;;;;9.62;62.92;101456.50;5135546;27;20499;-62
2022/11/14 00:19:49;;;;;;;12.13;8.60;;;;;;;9.62;62.37;101445.94;5135448;27;20098;-63
2022/11/14 00:22:14;;;;;;;11.90;7.97;;;;;;;9.64;62.73;101443.38;5134950;27;20043;-62
2022/11/14 00:24:40;;;;;;;11.07;7.70;;;;;;;9.59;62.57;101443.22;5135581;27;20163;-62
2022/11/14 00:27:05;;;;;;;12.35;7.88;;;;;;;9.53;62.20;101437.81;5135417;27;20027;-62
2022/11/14 00:29:30;;;;;;;10.85;7.35;;;;;;;9.48;62.74;101447.38;5135099;27;20522;-62
2022/11/14 00:31:56;;;;;;;11.68;7.35;;;;;;;9.45;62.46;101437.63;5135335;27;20114;-63
2022/11/14 00:34:21;;;;;;;10.57;7.82;;;;;;;9.34;62.68;101422.41;5135202;27;20054;-62
2022/11/14 00:36:46;;;;;;;11.32;7.32;;;;;;;9.33;62.96;101432.03;5135325;27;20023;-62
2022/11/14 00:39:13;;;;;;;10.98;6.85;;;;;;;9.27;62.82;101438.06;5135094;27;20380;-62
2022/11/14 00:41:39;;;;;;;11.30;7.60;;;;;;;9.23;63.14;101430.03;5135107;27;20031;-62
2022/11/14 00:44:05;;;;;;;12.95;7.22;;;;;;;9.24;63.15;101431.81;5135171;27;20052;-62
2022/11/14 00:46:30;;;;;;;10.05;6.90;;;;;;;9.22;63.10;101429.16;5134059;27;20426;-61
2022/11/14 00:48:55;;;;;;;10.50;6.75;;;;;;;9.24;62.91;101430.06;5133626;27;20031;-62
2022/11/14 00:51:21;;;;;;;9.38;6.90;;;;;;;9.25;63.19;101437.16;5133677;27;20468;-62
2022/11/14 00:53:46;;;;;;;11.90;6.68;;;;;;;9.17;63.08;101425.50;5134754;27;20039;-62
2022/11/14 00:56:12;;;;;;;10.75;6.85;;;;;;;9.13;62.77;101426.28;5135090;27;20027;-62
2022/11/14 00:58:37;;;;;;;13.25;7.20;;;;;;;9.10;62.73;101418.28;5134574;27;20395;-62
2022/11/14 01:01:02;;;;;;;9.45;6.72;;;;;;;9.12;62.98;101413.03;5134720;27;20499;-62
2022/11/14 01:03:28;;;;;;;12.00;7.40;;;;;;;9.04;62.82;101407.59;5133335;27;20032;-62
2022/11/14 01:05:53;;;;;;;9.85;6.60;;;;;;;9.05;62.90;101404.09;5134625;27;20031;-62
2022/11/14 01:08:19;;;;;;;9.93;6.72;;;;;;;9.05;62.63;101403.22;5134641;27;20483;-62
2022/11/14 01:10:47;;;;;;;9.25;6.45;;;;;;;8.95;63.10;101404.69;5134738;27;20118;-62
2022/11/14 01:13:14;;;;;;;10.35;6.75;;;;;;;8.90;63.23;101401.03;5134611;27;20065;-63
2022/11/14 01:15:40;;;;;;;9.77;6.75;;;;;;;8.80;63.87;101399.03;5134552;27;20132;-62
2022/11/14 01:18:06;;;;;;;10.18;6.90;;;;;;;8.67;64.01;101389.91;5134497;27;20055;-61
2022/11/14 01:20:31;;;;;;;9.68;6.55;;;;;;;8.50;64.77;101392.97;5134348;27;20433;-63
2022/11/14 01:22:57;;;;;;;11.00;6.88;;;;;;;8.35;64.56;101387.25;5133959;27;20508;-62
2022/11/14 01:25:22;;;;;;;11.30;6.38;;;;;;;8.20;65.02;101382.41;5134386;27;20058;-61
2022/11/14 01:27:47;;;;;;;8.70;6.32;;;;;;;8.09;66.44;101375.03;5134333;27;20019;-62
2022/11/14 01:30:13;;;;;;;9.32;6.50;;;;;;;7.98;66.02;101367.75;5134159;27;20468;-61
2022/11/14 01:32:38;;;;;;;10.13;7.03;;;;;;;7.96;66.45;101366.78;5133671;27;20365;-61
2022/11/14 01:35:04;;;;;;;8.05;6.15;;;;;;;7.92;67.25;101364.00;5133927;27;20031;-62
2022/11/14 01:37:30;;;;;;;9.05;6.25;;;;;;;7.96;65.97;101358.00;5134154;27;20031;-62
2022/11/14 01:39:55;;;;;;;9.80;6.57;;;;;;;7.89;66.90;101358.69;5134053;27;20030;-62
2022/11/14 01:42:20;;;;;;;12.35;6.25;;;;;;;7.90;66.64;101363.09;5134123;27;20046;-62
2022/11/14 01:44:51;;;;;;;9.27;6.50;;;;;;;7.92;67.12;101366.66;5134153;27;20031;-61
2022/11/14 01:47:24;;;;;;;10.35;6.65;;;;;;;7.93;66.06;101364.09;5134328;27;20021;-62
2022/11/14 01:49:53;;;;;;;8.65;6.20;;;;;;;8.01;66.29;101357.31;5134226;27;20433;-62
2022/11/14 01:52:33;;;;;;;9.98;6.47;;;;;;;8.00;65.55;101350.22;5132693;27;20078;-62
2022/11/14 01:55:03;;;;;;;9.60;6.22;;;;;;;7.96;66.01;101356.25;5134015;27;20388;-62
2022/11/14 01:57:37;;;;;;;9.60;6.28;;;;;;;8.00;66.29;101354.63;5133860;27;20108;-62
2022/11/14 02:00:09;;;;;;;8.77;6.45;;;;;;;8.06;67.72;101356.56;5132406;28;20387;-61
2022/11/14 02:02:35;;;;;;;11.20;6.40;;;;;;;8.06;65.36;101351.28;5133977;27;20034;-62
2022/11/14 02:05:10;;;;;;;10.55;6.10;;;;;;;8.06;64.76;101352.19;5133953;27;20106;-61
2022/11/14 02:07:39;;;;;;;9.20;6.13;;;;;;;7.98;65.24;101346.69;5133859;28;20388;-62
2022/11/14 02:10:14;;;;;;;8.60;6.20;;;;;;;7.99;65.86;101347.56;5132509;28;20046;-61
2022/11/14 02:12:39;;;;;;;10.13;6.20;;;;;;;7.99;65.39;101345.81;5133874;27;20034;-62
2022/11/14 02:15:05;;;;;;;9.45;5.78;;;;;;;7.97;65.44;101346.66;5133802;27;20031;-62
2022/11/14 02:17:31;;;;;;;9.00;6.45;;;;;;;7.92;66.07;101342.97;5132460;28;20035;-62
2022/11/14 02:20:09;;;;;;;8.60;6.05;;;;;;;7.85;65.46;101341.03;5133706;28;20108;-62
2022/11/14 02:22:35;;;;;;;8.00;5.95;;;;;;;7.75;67.27;101337.19;5133488;27;20047;-62
2022/11/14 02:25:01;;;;;;;8.38;5.75;;;;;;;7.70;66.40;101337.06;5133697;27;20049;-62
2022/11/14 02:27:26;;;;;;;9.27;6.10;;;;;;;7.66;65.77;101337.81;5133741;27;20034;-61
2022/11/14 02:29:52;;;;;;;11.18;6.43;;;;;;;7.64;66.31;101342.16;5133574;27;20031;-62
2022/11/14 02:32:17;;;;;;;8.90;6.03;;;;;;;7.66;65.85;101343.06;5133731;27;20023;-61
2022/11/14 02:34:43;;;;;;;8.45;6.10;;;;;;;7.70;65.20;101334.44;5133603;27;20090;-61
2022/11/14 02:37:08;;;;;;;9.02;6.00;;;;;;;7.78;65.76;101326.78;5133504;27;20046;-62
2022/11/14 02:39:33;;;;;;;9.48;6.22;;;;;;;7.81;65.82;101321.63;5133437;27;20041;-61
2022/11/14 02:41:59;;;;;;;8.77;5.85;;;;;;;7.91;65.09;101326.28;5133483;27;20476;-61
2022/11/14 02:44:25;;;;;;;10.98;6.22;;;;;;;7.96;64.85;101331.69;5134369;27;20023;-61
2022/11/14 02:46:50;;;;;;;8.60;6.20;;;;;;;7.97;64.57;101330.88;5137412;27;20028;-61
2022/11/14 02:49:16;;;;;;;13.27;6.38;;;;;;;7.86;64.23;101332.28;5137324;27;20075;-62
2022/11/14 02:51:41;;;;;;;8.98;6.20;;;;;;;7.68;65.29;101323.00;5136034;27;20045;-61
2022/11/14 02:54:07;;;;;;;10.45;6.28;;;;;;;7.66;66.99;101321.16;5137266;27;20051;-62
2022/11/14 02:56:32;;;;;;;9.25;6.07;;;;;;;7.61;65.98;101315.75;5137262;27;20039;-62
2022/11/14 02:58:58;;;;;;;8.00;5.90;;;;;;;7.57;65.66;101313.88;5135649;27;20024;-61
2022/11/14 03:01:23;;;;;;;9.60;6.28;;;;;;;7.55;65.61;101314.69;5137189;27;20468;-61
2022/11/14 03:03:48;;;;;;;8.98;5.90;;;;;;;7.52;65.61;101310.22;5137372;27;20027;-61
2022/11/14 03:06:14;;;;;;;7.97;5.95;;;;;;;7.43;65.25;101308.19;5137061;27;20428;-61
2022/11/14 03:08:39;;;;;;;8.75;5.88;;;;;;;7.42;65.47;101303.78;5136973;27;20023;-62
2022/11/14 03:11:06;;;;;;;8.93;5.70;;;;;;;7.40;65.53;101315.09;5137019;27;20035;-62
2022/11/14 03:13:31;;;;;;;8.48;5.95;;;;;;;7.43;65.21;101307.31;5136889;27;20079;-61
2022/11/14 03:15:57;;;;;;;9.95;6.13;;;;;;;7.36;65.38;101302.69;5136822;27;20106;-61
2022/11/14 03:18:22;;;;;;;10.65;6.25;;;;;;;7.28;66.14;101295.50;5136989;27;20024;-62
2022/11/14 03:20:47;;;;;;;8.43;5.85;;;;;;;7.31;66.62;101297.28;5135320;27;20020;-61
2022/11/14 03:23:13;;;;;;;9.52;5.95;;;;;;;7.32;66.00;101292.94;5136474;27;20059;-61
2022/11/14 03:25:38;;;;;;;10.65;6.15;;;;;;;7.32;66.30;101291.19;5136755;27;20631;-61
2022/11/14 03:28:04;;;;;;;7.93;6.15;;;;;;;7.19;66.50;101296.91;5136601;27;20027;-61
2022/11/14 03:30:30;;;;;;;9.48;6.30;;;;;;;7.16;65.95;101305.59;5136361;27;20034;-61
2022/11/14 03:32:56;;;;;;;8.77;6.00;;;;;;;7.10;65.83;101299.25;5135119;27;20545;-62
2022/11/14 03:35:22;;;;;;;9.93;6.15;;;;;;;7.01;66.54;101294.59;5136602;27;20035;-61
2022/11/14 03:37:47;;;;;;;10.18;6.40;;;;;;;6.93;67.34;101290.81;5136483;27;20058;-61
2022/11/14 03:40:13;;;;;;;8.55;6.20;;;;;;;6.96;66.80;101286.56;5136264;27;20442;-61
2022/11/14 03:42:38;;;;;;;8.82;5.95;;;;;;;6.97;66.07;101287.44;5136564;27;20023;-61
2022/11/14 03:45:04;;;;;;;7.95;5.72;;;;;;;7.01;66.90;101291.97;5134938;27;20030;-61
2022/11/14 03:47:29;;;;;;;9.02;5.82;;;;;;;7.08;66.13;101288.69;5136312;27;20476;-61
2022/11/14 03:49:55;;;;;;;9.70;6.00;;;;;;;7.04;65.77;101286.81;5136433;27;20031;-61
2022/11/14 03:52:20;;;;;;;8.30;6.22;;;;;;;7.06;66.72;101289.47;5136157;27;20533;-61
2022/11/14 03:54:46;;;;;;;10.80;6.60;;;;;;;7.08;67.56;101282.56;5136138;27;20038;-61
2022/11/14 03:57:11;;;;;;;8.05;6.20;;;;;;;7.05;66.35;101280.72;5135119;27;20027;-61
2022/11/14 03:59:36;;;;;;;12.27;6.22;;;;;;;6.99;67.38;101275.28;5135968;27;20031;-63
2022/11/14 04:02:02;;;;;;;9.02;5.97;;;;;;;6.93;67.30;101270.69;5134699;27;20540;-61
2022/11/14 04:04:27;;;;;;;10.20;6.20;;;;;;;6.93;66.21;101268.06;5135984;27;20047;-61
2022/11/14 04:06:53;;;;;;;9.43;6.47;;;;;;;6.88;66.14;101271.41;5135796;27;20027;-61
2022/11/14 04:09:18;;;;;;;8.65;6.15;;;;;;;6.81;67.04;101265.06;5134441;27;20035;-61
2022/11/14 04:11:43;;;;;;;9.45;6.22;;;;;;;6.78;67.54;101259.72;5135729;27;20511;-61
2022/11/14 04:14:09;;;;;;;10.05;6.05;;;;;;;6.79;67.35;101258.84;5135702;27;20034;-61
2022/11/14 04:16:34;;;;;;;8.85;6.18;;;;;;;6.78;67.06;101257.06;5135576;27;20047;-61
2022/11/14 04:19:00;;;;;;;9.18;6.15;;;;;;;6.79;67.19;101253.59;5135557;27;20034;-63
2022/11/14 04:21:26;;;;;;;8.38;6.22;;;;;;;6.71;67.09;101249.84;5135601;27;20487;-61
2022/11/14 04:23:51;;;;;;;9.43;6.28;;;;;;;6.61;68.03;101246.03;5135509;27;20054;-61
2022/11/14 04:26:16;;;;;;;10.77;6.15;;;;;;;6.44;67.93;101249.81;5135446;27;20109;-61
2022/11/14 04:28:42;;;;;;;9.35;6.38;;;;;;;6.46;68.38;101242.88;5135228;27;20361;-62
2022/11/14 04:31:07;;;;;;;9.48;6.30;;;;;;;6.56;68.97;101241.47;5135377;27;20080;-61
2022/11/14 04:33:32;;;;;;;9.95;6.15;;;;;;;6.66;68.80;101244.44;5135339;27;20361;-61
2022/11/14 04:35:58;;;;;;;8.10;5.82;;;;;;;6.74;68.22;101247.31;5135370;27;20103;-61
2022/11/14 04:38:23;;;;;;;9.85;6.65;;;;;;;6.77;67.71;101248.31;5133930;27;20104;-61
2022/11/14 04:40:50;;;;;;;11.13;6.35;;;;;;;6.83;67.69;101250.22;5135104;27;20034;-61
2022/11/14 04:43:15;;;;;;;12.27;6.60;;;;;;;6.83;67.11;101247.59;5135046;27;20016;-61
2022/11/14 04:45:41;;;;;;;10.25;6.20;;;;;;;6.86;67.23;101242.47;5135354;27;20019;-60
2022/11/14 04:48:06;;;;;;;9.82;6.35;;;;;;;6.78;66.82;101241.31;5134975;27;20515;-61
2022/11/14 04:50:31;;;;;;;8.50;6.35;;;;;;;6.69;66.81;101243.66;5135299;27;20035;-61
2022/11/14 04:52:57;;;;;;;10.65;6.07;;;;;;;6.66;67.67;101241.81;5133701;27;20042;-62
2022/11/14 04:55:22;;;;;;;11.07;6.55;;;;;;;6.62;68.33;101237.28;5133550;27;20134;-61
2022/11/14 04:57:54;;;;;;;9.60;6.18;;;;;;;6.65;67.73;101237.41;5134898;27;20087;-61
2022/11/14 05:00:19;;;;;;;9.10;6.20;;;;;;;6.66;67.62;101241.81;5134551;27;20023;-61
2022/11/14 05:02:45;;;;;;;9.98;6.10;;;;;;;6.62;67.34;101236.41;5134684;27;20020;-61
2022/11/14 05:05:10;;;;;;;9.63;6.25;;;;;;;6.58;67.84;101229.25;5134866;27;20461;-61
2022/11/14 05:07:35;;;;;;;9.40;6.72;;;;;;;6.57;67.92;101230.13;5134566;27;20027;-62
2022/11/14 05:10:01;;;;;;;10.00;6.22;;;;;;;6.57;67.94;101235.38;5134831;27;20232;-61
2022/11/14 05:12:26;;;;;;;11.13;6.40;;;;;;;6.55;67.94;101229.16;5134498;27;20553;-61
2022/11/14 05:14:51;;;;;;;10.10;6.30;;;;;;;6.52;67.77;101225.59;5134538;27;20027;-61
2022/11/14 05:17:17;;;;;;;7.32;5.95;;;;;;;6.39;67.62;101218.16;5134464;27;20027;-61
2022/11/14 05:19:42;;;;;;;9.23;6.40;;;;;;;6.36;68.13;101225.94;5134313;27;20376;-61
2022/11/14 05:22:07;;;;;;;9.45;6.20;;;;;;;6.34;68.62;101218.81;5134219;27;20035;-61
2022/11/14 05:24:33;;;;;;;9.57;6.22;;;;;;;6.33;69.04;101212.69;5134322;27;20460;-61
2022/11/14 05:26:58;;;;;;;10.13;6.43;;;;;;;6.33;68.49;101211.81;5134332;27;20031;-62
2022/11/14 05:29:23;;;;;;;12.50;6.65;;;;;;;6.33;68.12;101215.31;5134113;27;20027;-61
2022/11/14 05:31:49;;;;;;;9.88;6.70;;;;;;;6.28;68.30;101214.28;5134232;27;20102;-62
2022/11/14 05:34:14;;;;;;;59.80;34.90;;;;;;;6.26;68.86;101215.97;5134136;27;20053;-61
2022/11/14 05:36:39;;;;;;;16.27;10.02;;;;;;;6.27;68.64;101218.63;5134174;27;20060;-61
2022/11/14 05:39:05;;;;;;;10.70;6.90;;;;;;;6.29;68.92;101210.78;5134268;27;20452;-61
2022/11/14 05:41:30;;;;;;;11.00;6.53;;;;;;;6.25;69.13;101199.34;5134330;27;20107;-61
2022/11/14 05:43:56;;;;;;;12.75;6.50;;;;;;;6.24;69.29;101200.16;5132836;27;20476;-61
2022/11/14 05:46:21;;;;;;;9.25;6.25;;;;;;;6.20;68.86;101202.63;5134008;27;20027;-62
2022/11/14 05:48:46;;;;;;;10.02;6.43;;;;;;;6.22;69.36;101199.22;5133956;27;20476;-61
2022/11/14 05:51:12;;;;;;;10.10;6.65;;;;;;;6.23;69.34;101187.88;5133903;27;20119;-61
2022/11/14 05:53:38;;;;;;;9.80;6.78;;;;;;;6.15;69.18;101197.22;5134038;27;20022;-61
2022/11/14 05:56:06;;;;;;;10.20;6.43;;;;;;;6.12;69.37;101191.84;5133852;27;20023;-61
2022/11/14 05:58:32;;;;;;;11.38;6.53;;;;;;;6.19;69.18;101192.97;5133647;27;20034;-61
2022/11/14 06:01:13;;;;;;;9.60;6.65;;;;;;;6.20;69.54;101197.38;5133786;27;20027;-60
2022/11/14 06:03:41;;;;;;;11.15;6.63;;;;;;;6.18;69.13;101189.47;5134161;27;20035;-61
2022/11/14 06:06:09;;;;;;;11.18;6.78;;;;;;;6.11;69.85;101187.47;5134000;27;20029;-61
2022/11/14 06:08:35;;;;;;;9.45;5.93;;;;;;;6.11;70.39;101184.84;5133960;27;20464;-61
2022/11/14 06:11:03;;;;;;;12.30;7.05;;;;;;;6.07;69.56;101189.94;5134112;27;20083;-61
2022/11/14 06:13:30;;;;;;;10.38;6.47;;;;;;;5.99;69.52;101189.66;5134066;27;20027;-61
2022/11/14 06:16:03;;;;;;;9.48;6.38;;;;;;;5.95;70.33;101193.94;5133816;27;20027;-61
2022/11/14 06:18:29;;;;;;;11.27;6.70;;;;;;;5.90;69.98;101199.78;5133869;27;20063;-62
2022/11/14 06:21:03;;;;;;;10.00;6.50;;;;;;;5.85;70.40;101197.00;5137085;27;20064;-62
2022/11/14 06:23:28;;;;;;;11.27;6.20;;;;;;;5.89;70.04;101198.91;5137397;27;20051;-62
2022/11/14 06:26:01;;;;;;;13.48;6.53;;;;;;;5.91;70.01;101201.56;5137847;27;20050;-62
2022/11/14 06:28:27;;;;;;;10.10;6.63;;;;;;;5.96;69.83;101195.69;5137656;27;20039;-61
2022/11/14 06:31:00;;;;;;;9.32;6.40;;;;;;;6.00;69.44;101201.97;5137828;27;20027;-61
2022/11/14 06:33:27;;;;;;;12.80;7.07;;;;;;;6.04;69.75;101195.97;5137749;27;20181;-62
2022/11/14 06:35:59;;;;;;;12.55;6.72;;;;;;;6.04;69.12;101195.97;5137558;27;20102;-61
2022/11/14 06:38:25;;;;;;;;;;;;;;;6.19;67.80;101200.84;5138316;27;20080;-61
2022/11/14 06:40:50;;;;;;;11.45;6.53;;;;;;;6.00;68.40;101197.59;5137457;27;19916;-61
2022/11/14 06:43:16;;;;;;;10.02;6.45;;;;;;;5.98;68.68;101198.38;5137342;27;20027;-61
2022/11/14 06:45:41;;;;;;;11.07;6.60;;;;;;;6.01;69.04;101193.25;5137514;27;20092;-61
2022/11/14 06:48:06;;;;;;;11.63;6.50;;;;;;;6.05;68.92;101195.13;5137310;27;20063;-61
2022/11/14 06:50:32;;;;;;;12.18;6.60;;;;;;;6.02;68.41;101195.00;5137268;27;20384;-61
2022/11/14 06:52:57;;;;;;;10.25;6.28;;;;;;;5.99;68.67;101194.91;5137202;27;20034;-61
2022/11/14 06:55:23;;;;;;;14.18;6.80;;;;;;;5.94;69.06;101204.34;5137119;27;20023;-61
2022/11/14 06:57:53;;;;;;;13.55;7.30;;;;;;;5.88;69.11;101198.88;5136883;27;20039;-61
2022/11/14 07:00:19;;;;;;;14.73;6.50;;;;;;;5.83;69.54;101205.69;5137056;27;20050;-61
2022/11/14 07:02:46;;;;;;;9.13;6.40;;;;;;;5.83;69.96;101200.44;5137305;27;20023;-61
2022/11/14 07:05:11;;;;;;;10.02;6.50;;;;;;;5.90;69.59;101208.53;5136983;27;20023;-61
2022/11/14 07:07:36;;;;;;;12.60;6.55;;;;;;;5.88;69.31;101209.34;5136972;27;20030;-61
2022/11/14 07:10:02;;;;;;;10.43;6.80;;;;;;;5.80;70.01;101216.94;5135462;27;20088;-61
2022/11/14 07:12:28;;;;;;;11.55;6.60;;;;;;;5.63;70.89;101211.09;5136987;27;20027;-61
2022/11/14 07:14:53;;;;;;;10.35;6.43;;;;;;;5.49;70.34;101223.69;5135548;27;20031;-61
2022/11/14 07:17:19;;;;;;;10.70;6.35;;;;;;;5.47;70.96;101208.72;5136842;27;20046;-61
2022/11/14 07:19:44;;;;;;;11.88;7.03;;;;;;;5.53;70.82;101215.09;5135409;27;20027;-61
2022/11/14 07:22:09;;;;;;;11.68;6.93;;;;;;;5.53;70.65;101209.88;5136736;27;20027;-61
2022/11/14 07:24:35;;;;;;;11.52;6.80;;;;;;;5.50;70.48;101220.22;5136344;27;20369;-61
2022/11/14 07:27:01;;;;;;;12.15;6.65;;;;;;;5.42;70.58;101224.28;5136563;27;20063;-61
2022/11/14 07:29:26;;;;;;;13.55;7.32;;;;;;;5.45;71.60;101224.41;5136309;27;20023;-61
2022/11/14 07:31:51;;;;;;;11.75;6.75;;;;;;;5.57;71.67;101217.81;5135175;27;20027;-61
2022/11/14 07:34:17;;;;;;;14.82;7.15;;;;;;;5.72;71.34;101219.28;5136564;27;20077;-61
2022/11/14 07:36:43;;;;;;;12.40;7.15;;;;;;;5.86;71.24;101224.13;5136490;27;20027;-61
2022/11/14 07:39:08;;;;;;;11.82;7.00;;;;;;;5.95;70.39;101207.03;5135900;27;20417;-61
2022/11/14 07:41:34;;;;;;;12.30;6.38;;;;;;;6.05;70.65;101203.00;5135763;27;20057;-61
2022/11/14 07:43:59;;;;;;;11.10;7.05;;;;;;;6.19;70.55;101200.84;5136244;27;20472;-61
2022/11/14 07:46:25;;;;;;;11.27;6.93;;;;;;;6.39;70.88;101199.78;5136148;27;20032;-61
2022/11/14 07:48:50;;;;;;;11.13;7.65;;;;;;;6.49;69.52;101196.63;5136119;27;20034;-63
2022/11/14 07:51:18;;;;;;;13.13;7.32;;;;;;;6.44;69.80;101186.81;5136090;27;20106;-61
2022/11/14 07:53:44;;;;;;;12.52;7.10;;;;;;;6.50;69.19;101200.13;5136411;27;20023;-61
2022/11/14 07:56:10;;;;;;;16.00;7.55;;;;;;;6.62;69.69;101204.91;5136057;27;20480;-61
2022/11/14 07:58:37;;;;;;;13.93;7.63;;;;;;;6.85;70.62;101196.03;5135822;27;20504;-61
2022/11/14 08:01:04;;;;;;;14.23;7.30;;;;;;;7.20;70.76;101190.97;5135888;27;20468;-61
2022/11/14 08:03:30;;;;;;;13.13;7.22;;;;;;;7.58;68.29;101199.97;5135873;27;20031;-61
2022/11/14 08:06:07;;;;;;;15.02;8.88;;;;;;;7.99;70.15;101190.56;5134493;27;20476;-61
2022/11/14 08:08:33;;;;;;;10.77;7.03;;;;;;;8.37;66.80;101187.19;5135611;27;20058;-61
2022/11/14 08:10:59;;;;;;;11.68;7.00;;;;;;;8.73;65.08;101182.78;5135653;27;20106;-61
2022/11/14 08:13:26;;;;;;;10.73;7.20;;;;;;;9.02;63.87;101180.84;5135954;27;20119;-62
2022/11/14 08:15:52;;;;;;;12.90;7.05;;;;;;;9.28;63.00;101169.97;5135726;27;20525;-61
2022/11/14 08:18:18;;;;;;;12.57;7.70;;;;;;;9.48;62.63;101165.13;5133709;27;20055;-61
2022/11/14 08:20:44;;;;;;;12.32;6.97;;;;;;;9.67;61.61;101169.88;5135180;27;20063;-61
2022/11/14 08:23:10;;;;;;;12.07;7.07;;;;;;;9.87;61.90;101167.63;5135737;27;20019;-61
2022/11/14 08:25:35;;;;;;;9.02;6.57;;;;;;;9.99;60.97;101162.59;5135269;27;20101;-61
2022/11/14 08:28:01;;;;;;;10.65;6.93;;;;;;;10.15;60.26;101169.03;5135296;27;20019;-61
2022/11/14 08:30:26;;;;;;;13.77;7.18;;;;;;;10.30;60.10;101167.56;5135144;27;20016;-62
2022/11/14 08:32:52;;;;;;;11.20;6.68;;;;;;;10.51;60.01;101166.16;5135427;27;20031;-61
2022/11/14 08:35:17;;;;;;;12.98;7.03;;;;;;;10.70;59.04;101159.38;5135285;27;20055;-61
2022/11/14 08:37:43;;;;;;;12.02;6.93;;;;;;;10.82;58.37;101160.44;5135139;27;20027;-62
2022/11/14 08:40:09;;;;;;;13.32;7.43;;;;;;;11.06;58.15;101163.44;5133794;27;20114;-61
2022/11/14 08:42:34;;;;;;;12.20;7.43;;;;;;;11.27;57.93;101149.63;5134659;27;20472;-61
2022/11/14 08:45:00;;;;;;;12.68;7.55;;;;;;;11.51;57.46;101149.91;5135126;27;20102;-61
2022/11/14 08:47:25;;;;;;;13.35;8.00;;;;;;;11.73;56.93;101155.44;5135137;27;20047;-61
2022/11/14 08:49:51;;;;;;;14.88;7.95;;;;;;;11.98;56.49;101151.31;5135061;27;20035;-61
2022/11/14 08:52:16;;;;;;;11.43;7.45;;;;;;;12.09;56.86;101147.03;5134856;27;20473;-61
2022/11/14 08:54:41;;;;;;;14.65;7.50;;;;;;;12.21;55.49;101140.97;5134713;27;20430;-61
2022/11/14 08:57:07;;;;;;;13.98;7.28;;;;;;;12.41;54.78;101143.75;5133507;27;20028;-61
2022/11/14 08:59:32;;;;;;;13.80;7.50;;;;;;;12.39;54.44;101133.16;5134427;27;20019;-62
2022/11/14 09:01:58;;;;;;;11.15;7.25;;;;;;;12.53;54.96;101139.44;5134527;27;20057;-63
2022/11/14 09:04:23;;;;;;;12.13;7.13;;;;;;;12.45;53.80;101132.31;5134832;27;20027;-61
2022/11/14 09:06:48;;;;;;;11.52;7.97;;;;;;;12.59;54.05;101135.97;5134687;27;20023;-62
2022/11/14 09:09:14;;;;;;;10.63;7.68;;;;;;;12.59;53.91;101130.66;5134904;27;20035;-61
2022/11/14 09:11:40;;;;;;;9.52;7.10;;;;;;;12.74;53.79;101135.19;5133413;27;20076;-61
2022/11/14 09:14:05;;;;;;;11.95;7.45;;;;;;;12.66;54.26;101129.81;5134482;27;20027;-61
2022/11/14 09:16:32;;;;;;;11.25;7.25;;;;;;;12.69;54.48;101127.19;5134717;27;20062;-61
2022/11/14 09:18:58;;;;;;;15.27;7.60;;;;;;;12.93;54.31;101126.47;5134454;27;20438;-61
2022/11/14 09:21:24;;;;;;;12.90;8.05;;;;;;;12.92;54.21;101126.44;5134730;27;20047;-62
2022/11/14 09:23:50;;;;;;;13.00;7.85;;;;;;;12.73;55.07;101122.81;5133943;27;20051;-61
2022/11/14 09:26:17;;;;;;;12.82;8.23;;;;;;;12.87;54.77;101120.22;5134378;27;20096;-61
2022/11/14 09:28:43;;;;;;;12.35;7.75;;;;;;;12.91;54.59;101114.06;5134476;27;20110;-61
2022/11/14 09:31:10;;;;;;;14.57;8.38;;;;;;;12.77;54.50;101117.53;5134223;27;20110;-60
2022/11/14 09:33:36;;;;;;;14.85;8.13;;;;;;;12.84;55.13;101114.88;5134221;27;20024;-61
2022/11/14 09:36:05;;;;;;;13.40;7.65;;;;;;;13.03;55.52;101109.72;5134265;27;20533;-61
2022/11/14 09:38:31;;;;;;;11.85;8.30;;;;;;;13.15;54.53;101106.22;5134120;27;20031;-61
2022/11/14 09:41:14;;;;;;;11.18;8.27;;;;;;;13.28;54.38;101101.91;5133976;27;20058;-61
2022/11/14 09:44:04;;;;;;;12.52;7.93;;;;;;;13.56;53.47;101094.00;5134059;27;20023;-61
2022/11/14 09:46:43;;;;;;;12.98;8.23;;;;;;;13.92;53.15;101104.72;5133878;27;20023;-61
2022/11/14 09:49:38;;;;;;;12.02;7.88;;;;;;;14.03;52.48;101110.91;5133356;27;20499;-60
2022/11/14 09:52:19;;;;;;;11.23;7.60;;;;;;;13.84;52.52;101108.25;5133923;27;20491;-61
2022/11/14 09:55:00;;;;;;;12.82;8.13;;;;;;;13.86;53.27;101109.09;5133108;27;20481;-61
2022/11/14 09:57:26;;;;;;;11.50;7.50;;;;;;;13.92;52.36;101118.00;5133761;28;20074;-61
2022/11/14 09:59:52;;;;;;;12.80;8.25;;;;;;;14.00;52.96;101110.00;5133325;28;20062;-62
2022/11/14 10:02:44;;;;;;;11.25;8.50;;;;;;;14.24;52.97;101106.47;5133013;28;20030;-61
2022/11/14 10:05:09;;;;;;;13.45;9.18;;;;;;;14.19;51.69;101114.47;5131848;28;20042;-62
2022/11/14 10:08:03;;;;;;;13.07;8.77;;;;;;;14.17;52.41;101116.22;5133762;28;20023;-63
2022/11/14 10:10:34;;;;;;;15.80;8.98;;;;;;;14.14;51.97;101104.72;5101611;28;20028;-62
2022/11/14 10:13:02;;;;;;;13.90;8.80;;;;;;;13.72;53.62;101107.31;5133801;28;20087;-61
2022/11/14 10:15:41;;;;;;;14.98;9.88;;;;;;;12.81;55.10;101105.19;5133718;28;20034;-61
2022/11/14 10:18:40;;;;;;;15.45;9.35;;;;;;;12.65;55.61;101103.31;5133815;28;20111;-61
2022/11/14 10:21:36;;;;;;;13.02;9.13;;;;;;;12.79;56.13;101107.78;5133549;28;20495;-63
2022/11/14 10:24:26;;;;;;;12.88;9.63;;;;;;;12.93;55.65;101107.91;5133563;28;20100;-62
2022/11/14 10:27:00;;;;;;;12.85;9.80;;;;;;;13.09;55.17;101105.31;5133721;28;20034;-62
2022/11/14 10:30:01;;;;;;;13.80;10.13;;;;;;;13.18;55.27;101105.34;5133272;28;20035;-62
2022/11/14 10:32:45;;;;;;;13.73;10.13;;;;;;;13.44;54.39;101109.00;5133662;28;20015;-62
2022/11/14 10:35:21;;;;;;;14.35;10.13;;;;;;;13.27;54.58;101111.63;5133822;28;20054;-61
2022/11/14 10:38:17;;;;;;;15.00;10.40;;;;;;;13.40;55.14;101099.25;5133438;28;20433;-61
2022/11/14 10:40:49;;;;;;;13.93;9.68;;;;;;;13.60;54.15;101106.41;5090194;28;20046;-61
2022/11/14 10:43:39;;;;;;;14.65;10.48;;;;;;;13.53;54.88;101098.44;5133717;27;20465;-62
2022/11/14 10:46:04;;;;;;;14.38;10.07;;;;;;;13.68;55.00;101099.34;5133434;28;20090;-62
2022/11/14 10:48:34;;;;;;;14.73;10.38;;;;;;;13.67;54.48;101089.63;5133393;28;20496;-62
2022/11/14 10:51:32;;;;;;;14.10;10.20;;;;;;;13.91;54.26;101092.28;5133630;28;20023;-63
2022/11/14 10:54:05;;;;;;;15.00;10.25;;;;;;;13.88;54.53;101102.94;5125893;28;20549;-63
2022/11/14 10:56:31;;;;;;;15.65;10.73;;;;;;;13.93;54.56;101079.91;5133477;28;20504;-62
2022/11/14 10:58:56;;;;;;;16.13;10.98;;;;;;;13.92;54.18;101085.22;5133271;28;20111;-62
2022/11/14 11:01:40;;;;;;;17.55;11.00;;;;;;;13.99;54.47;101077.25;5133310;28;20493;-61
2022/11/14 11:04:31;;;;;;;16.10;11.60;;;;;;;13.93;54.78;101071.06;5132173;28;20030;-61
2022/11/14 11:07:06;;;;;;;18.80;11.25;;;;;;;14.07;54.72;101074.59;5136347;27;20030;-61
2022/11/14 11:12:22;;;;;;;18.02;12.07;;;;;;;14.12;54.50;101066.63;5137205;27;20034;-61
2022/11/14 11:15:06;;;;;;;19.65;12.13;;;;;;;14.47;53.31;101053.28;5136784;27;20030;-62
2022/11/14 11:17:32;;;;;;;17.15;11.45;;;;;;;14.78;53.19;101047.03;5136791;27;20023;-61
2022/11/14 11:20:37;;;;;;;17.52;12.32;;;;;;;15.19;52.92;101039.75;5136509;27;20472;-61
2022/11/14 11:23:18;;;;;;;17.02;12.02;;;;;;;15.50;51.20;101040.47;5136699;27;20472;-63
2022/11/14 11:25:44;;;;;;;18.35;12.45;;;;;;;15.57;50.27;101034.22;5136352;27;20126;-61
2022/11/14 11:28:16;;;;;;;16.27;12.25;;;;;;;15.60;50.58;101031.53;5136630;27;20043;-61
2022/11/14 11:31:03;;;;;;;16.08;12.18;;;;;;;15.82;50.76;101024.31;5136491;27;20507;-62